createdAt,value
2024-05-09T00:04:48.685Z,11838.41797
2024-05-09T00:19:50.797Z,9262.03711
2024-05-09T00:34:52.876Z,11279.27246
2024-05-09T00:49:54.945Z,7144.63818
2024-05-09T01:04:57.134Z,9682.98145
2024-05-09T01:19:59.376Z,8777.69824
2024-05-09T01:35:01.518Z,7104.06494
2024-05-09T01:50:03.736Z,1308.47668
2024-05-09T02:05:06.170Z,1087.86145
2024-05-09T02:20:13.151Z,869.78198
2024-05-09T02:35:18.244Z,632.68402
2024-05-09T02:50:29.079Z,415.87244
2024-05-09T03:05:36.682Z,190.18558
2024-05-09T03:20:39.487Z,59.59148
2024-05-09T03:35:41.963Z,11.41113
2024-05-09T03:50:44.079Z,1.2679
2024-05-09T04:05:46.246Z,0
2024-05-09T04:20:48.519Z,0
2024-05-09T04:35:50.714Z,0
2024-05-09T04:50:53.177Z,0
2024-05-09T05:05:55.850Z,0
2024-05-09T05:20:58.155Z,0
2024-05-09T05:36:00.620Z,0
2024-05-09T05:51:04.627Z,0
2024-05-09T06:06:07.080Z,0
2024-05-09T06:21:09.290Z,0
2024-05-09T06:36:11.448Z,0
2024-05-09T06:51:13.607Z,0
2024-05-09T07:06:15.815Z,0
2024-05-09T07:21:18.154Z,0
2024-05-09T07:36:20.365Z,0
2024-05-09T08:06:27.494Z,0
2024-05-09T08:21:29.635Z,0
2024-05-09T08:36:31.753Z,0
2024-05-09T08:51:33.782Z,0
2024-05-09T09:06:35.894Z,0
2024-05-09T09:21:37.930Z,0
2024-05-09T09:36:39.947Z,0
2024-05-09T09:51:41.959Z,0
2024-05-09T10:06:44.020Z,0
2024-05-09T10:21:46.057Z,0
2024-05-09T10:36:48.110Z,0
2024-05-09T10:51:50.331Z,0
2024-05-09T11:06:52.375Z,0
2024-05-09T11:21:54.460Z,0
2024-05-09T11:36:56.506Z,0
2024-05-09T11:51:58.675Z,6.33952
2024-05-09T12:07:00.769Z,43.10873
2024-05-09T12:22:02.841Z,152.14845
2024-05-09T12:37:04.938Z,327.11917
2024-05-09T12:52:07.279Z,518.57263
2024-05-09T13:07:09.543Z,1084.05774
2024-05-09T13:22:11.876Z,1574.73657
2024-05-09T13:37:14.107Z,2690.49194
2024-05-09T13:52:16.207Z,33169.63281
2024-05-09T14:07:18.309Z,12083.12305
2024-05-09T14:22:20.388Z,26208.83984
2024-05-09T14:37:22.457Z,3709.88647
2024-05-09T14:52:24.500Z,4782.5332
2024-05-09T15:07:26.615Z,3722.56567
2024-05-09T15:22:28.622Z,3655.3667
2024-05-09T15:37:30.624Z,3812.58667
2024-05-09T15:52:32.671Z,4390.75098
2024-05-09T16:07:34.657Z,4928.34229
2024-05-09T16:22:36.640Z,5464.66553
2024-05-09T16:37:38.745Z,5658.65479
2024-05-09T16:52:40.840Z,5564.82959
2024-05-09T17:07:42.899Z,5545.81104
2024-05-09T17:22:44.886Z,5629.49268
2024-05-09T17:37:46.964Z,5766.42627
2024-05-09T17:52:49.282Z,5671.3335
2024-05-09T18:07:51.371Z,5962.95166
2024-05-09T18:22:53.478Z,5629.49268
2024-05-09T18:37:55.506Z,5940.12939
2024-05-09T18:52:58.319Z,6382.62793
2024-05-09T19:08:00.495Z,6350.93018
2024-05-09T19:23:02.620Z,6184.83496
2024-05-09T19:38:04.866Z,6250.76562
2024-05-09T19:53:06.916Z,6352.19824
2024-05-09T20:08:08.985Z,6934.16602
2024-05-09T20:23:11.269Z,7304.39404
2024-05-09T20:38:13.590Z,6523.36523
2024-05-09T20:53:15.757Z,6241.89062
2024-05-09T21:08:17.867Z,7256.21338
2024-05-09T21:23:20.025Z,7829.30615
2024-05-09T21:38:22.084Z,8780.2334
2024-05-09T21:53:24.247Z,9538.44043
2024-05-09T22:08:26.194Z,10045.60156
2024-05-09T22:23:28.331Z,10637.71289
2024-05-09T22:38:30.403Z,11011.74414
2024-05-09T22:53:32.395Z,11840.9541
2024-05-09T23:08:34.376Z,12731.02246
2024-05-09T23:23:36.378Z,13248.32715
2024-05-09T23:38:38.581Z,13566.57031
2024-05-09T23:53:40.567Z,14082.60742
